sensor_id;sensor_type;location;lat;lon;timestamp;temperature;humidity
14577;DHT22;7375;46.072;14.470;2022-10-18T00:01:17;20.60;90.70
14577;DHT22;7375;46.072;14.470;2022-10-18T00:03:43;20.60;90.70
14577;DHT22;7375;46.072;14.470;2022-10-18T00:06:10;20.60;90.70
14577;DHT22;7375;46.072;14.470;2022-10-18T00:08:37;20.60;90.70
14577;DHT22;7375;46.072;14.470;2022-10-18T00:11:05;20.60;90.70
14577;DHT22;7375;46.072;14.470;2022-10-18T00:13:33;20.60;90.70
14577;DHT22;7375;46.072;14.470;2022-10-18T00:16:01;20.50;90.70
14577;DHT22;7375;46.072;14.470;2022-10-18T00:18:28;20.50;90.70
14577;DHT22;7375;46.072;14.470;2022-10-18T00:20:55;20.50;90.70
14577;DHT22;7375;46.072;14.470;2022-10-18T00:23:22;20.50;90.70
14577;DHT22;7375;46.072;14.470;2022-10-18T00:25:56;20.50;90.70
14577;DHT22;7375;46.072;14.470;2022-10-18T00:28:23;20.50;90.90
14577;DHT22;7375;46.072;14.470;2022-10-18T00:30:51;20.50;90.70
14577;DHT22;7375;46.072;14.470;2022-10-18T00:33:18;20.50;90.70
14577;DHT22;7375;46.072;14.470;2022-10-18T00:35:45;20.50;90.70
14577;DHT22;7375;46.072;14.470;2022-10-18T00:38:12;20.50;90.70
14577;DHT22;7375;46.072;14.470;2022-10-18T00:40:38;20.50;90.70
14577;DHT22;7375;46.072;14.470;2022-10-18T00:43:07;20.50;90.70
14577;DHT22;7375;46.072;14.470;2022-10-18T00:45:34;20.50;90.70
14577;DHT22;7375;46.072;14.470;2022-10-18T00:48:02;20.50;90.60
14577;DHT22;7375;46.072;14.470;2022-10-18T00:50:31;20.50;90.70
14577;DHT22;7375;46.072;14.470;2022-10-18T00:52:59;20.50;90.60
14577;DHT22;7375;46.072;14.470;2022-10-18T00:55:27;20.60;90.60
14577;DHT22;7375;46.072;14.470;2022-10-18T00:57:54;20.50;90.60
14577;DHT22;7375;46.072;14.470;2022-10-18T01:00:21;20.50;90.60
14577;DHT22;7375;46.072;14.470;2022-10-18T01:02:48;20.50;90.60
14577;DHT22;7375;46.072;14.470;2022-10-18T01:05:16;20.50;90.60
14577;DHT22;7375;46.072;14.470;2022-10-18T01:07:56;20.50;90.50
14577;DHT22;7375;46.072;14.470;2022-10-18T01:10:29;20.50;90.50
14577;DHT22;7375;46.072;14.470;2022-10-18T01:13:01;20.50;90.50
14577;DHT22;7375;46.072;14.470;2022-10-18T01:15:30;20.50;90.50
14577;DHT22;7375;46.072;14.470;2022-10-18T01:18:00;20.50;90.50
14577;DHT22;7375;46.072;14.470;2022-10-18T01:23:32;20.50;90.50
14577;DHT22;7375;46.072;14.470;2022-10-18T01:26:03;20.50;90.50
14577;DHT22;7375;46.072;14.470;2022-10-18T01:28:38;20.50;90.50
14577;DHT22;7375;46.072;14.470;2022-10-18T01:31:10;20.50;90.50
14577;DHT22;7375;46.072;14.470;2022-10-18T01:33:40;20.50;90.50
14577;DHT22;7375;46.072;14.470;2022-10-18T01:36:10;20.50;90.50
14577;DHT22;7375;46.072;14.470;2022-10-18T01:38:39;20.50;90.50
14577;DHT22;7375;46.072;14.470;2022-10-18T01:41:07;20.50;90.50
14577;DHT22;7375;46.072;14.470;2022-10-18T01:43:35;20.50;90.50
14577;DHT22;7375;46.072;14.470;2022-10-18T01:46:02;20.50;90.50
14577;DHT22;7375;46.072;14.470;2022-10-18T01:48:31;20.50;90.50
14577;DHT22;7375;46.072;14.470;2022-10-18T01:50:58;20.50;90.50
14577;DHT22;7375;46.072;14.470;2022-10-18T01:53:26;20.50;90.50
14577;DHT22;7375;46.072;14.470;2022-10-18T01:55:55;20.50;90.40
14577;DHT22;7375;46.072;14.470;2022-10-18T01:58:26;20.50;90.40
14577;DHT22;7375;46.072;14.470;2022-10-18T02:00:54;20.50;90.40
14577;DHT22;7375;46.072;14.470;2022-10-18T02:03:25;20.50;90.40
14577;DHT22;7375;46.072;14.470;2022-10-18T02:05:55;20.50;90.40
14577;DHT22;7375;46.072;14.470;2022-10-18T02:08:24;20.50;90.40
14577;DHT22;7375;46.072;14.470;2022-10-18T02:10:54;20.50;90.40
14577;DHT22;7375;46.072;14.470;2022-10-18T02:13:22;20.50;90.30
14577;DHT22;7375;46.072;14.470;2022-10-18T02:15:52;20.50;90.30
14577;DHT22;7375;46.072;14.470;2022-10-18T02:18:21;20.50;90.30
14577;DHT22;7375;46.072;14.470;2022-10-18T02:20:49;20.50;90.30
14577;DHT22;7375;46.072;14.470;2022-10-18T02:23:18;20.50;90.30
14577;DHT22;7375;46.072;14.470;2022-10-18T02:25:46;20.50;90.30
14577;DHT22;7375;46.072;14.470;2022-10-18T02:28:13;20.50;90.30
14577;DHT22;7375;46.072;14.470;2022-10-18T02:30:41;20.50;90.30
14577;DHT22;7375;46.072;14.470;2022-10-18T02:33:10;20.50;90.20
14577;DHT22;7375;46.072;14.470;2022-10-18T02:35:38;20.50;90.30
14577;DHT22;7375;46.072;14.470;2022-10-18T02:38:06;20.50;90.20
14577;DHT22;7375;46.072;14.470;2022-10-18T02:40:35;20.50;90.20
14577;DHT22;7375;46.072;14.470;2022-10-18T02:43:02;20.50;90.30
14577;DHT22;7375;46.072;14.470;2022-10-18T02:45:30;20.50;90.20
14577;DHT22;7375;46.072;14.470;2022-10-18T02:47:58;20.50;90.20
14577;DHT22;7375;46.072;14.470;2022-10-18T02:50:25;20.50;90.20
14577;DHT22;7375;46.072;14.470;2022-10-18T02:52:51;20.50;90.20
14577;DHT22;7375;46.072;14.470;2022-10-18T02:55:18;20.50;90.20
14577;DHT22;7375;46.072;14.470;2022-10-18T02:57:46;20.50;90.20
14577;DHT22;7375;46.072;14.470;2022-10-18T03:00:14;20.50;90.20
14577;DHT22;7375;46.072;14.470;2022-10-18T03:02:41;20.50;90.20
14577;DHT22;7375;46.072;14.470;2022-10-18T03:05:08;20.50;90.20
14577;DHT22;7375;46.072;14.470;2022-10-18T03:07:35;20.50;90.20
14577;DHT22;7375;46.072;14.470;2022-10-18T03:10:02;20.50;90.10
14577;DHT22;7375;46.072;14.470;2022-10-18T03:12:29;20.50;90.20
14577;DHT22;7375;46.072;14.470;2022-10-18T03:14:57;20.50;90.20
14577;DHT22;7375;46.072;14.470;2022-10-18T03:17:24;20.50;90.20
14577;DHT22;7375;46.072;14.470;2022-10-18T03:19:50;20.50;90.10
14577;DHT22;7375;46.072;14.470;2022-10-18T03:22:17;20.50;90.10
14577;DHT22;7375;46.072;14.470;2022-10-18T03:24:44;20.50;90.20
14577;DHT22;7375;46.072;14.470;2022-10-18T03:27:10;20.50;90.10
14577;DHT22;7375;46.072;14.470;2022-10-18T03:29:37;20.50;90.00
14577;DHT22;7375;46.072;14.470;2022-10-18T03:32:06;20.50;90.10
14577;DHT22;7375;46.072;14.470;2022-10-18T03:34:35;20.50;90.10
14577;DHT22;7375;46.072;14.470;2022-10-18T03:37:02;20.50;90.30
14577;DHT22;7375;46.072;14.470;2022-10-18T03:39:29;20.50;90.00
14577;DHT22;7375;46.072;14.470;2022-10-18T03:41:56;20.60;90.00
14577;DHT22;7375;46.072;14.470;2022-10-18T03:44:23;20.60;90.00
14577;DHT22;7375;46.072;14.470;2022-10-18T03:46:49;20.60;90.00
14577;DHT22;7375;46.072;14.470;2022-10-18T03:49:17;20.60;90.00
14577;DHT22;7375;46.072;14.470;2022-10-18T03:51:44;20.50;90.00
14577;DHT22;7375;46.072;14.470;2022-10-18T03:54:11;20.60;90.00
14577;DHT22;7375;46.072;14.470;2022-10-18T03:56:37;20.60;90.00
14577;DHT22;7375;46.072;14.470;2022-10-18T03:59:04;20.60;90.00
14577;DHT22;7375;46.072;14.470;2022-10-18T04:01:31;20.60;89.90
14577;DHT22;7375;46.072;14.470;2022-10-18T04:03:57;20.60;89.90
14577;DHT22;7375;46.072;14.470;2022-10-18T04:06:26;20.60;89.90
14577;DHT22;7375;46.072;14.470;2022-10-18T04:08:53;20.60;89.90
14577;DHT22;7375;46.072;14.470;2022-10-18T04:11:20;20.60;89.80
14577;DHT22;7375;46.072;14.470;2022-10-18T04:13:47;20.60;89.70
14577;DHT22;7375;46.072;14.470;2022-10-18T04:16:14;20.60;89.80
14577;DHT22;7375;46.072;14.470;2022-10-18T04:18:41;20.60;89.80
14577;DHT22;7375;46.072;14.470;2022-10-18T04:21:08;20.60;89.60
14577;DHT22;7375;46.072;14.470;2022-10-18T04:23:36;20.60;89.70
14577;DHT22;7375;46.072;14.470;2022-10-18T04:26:02;20.60;89.60
14577;DHT22;7375;46.072;14.470;2022-10-18T04:28:29;20.60;89.50
14577;DHT22;7375;46.072;14.470;2022-10-18T04:30:56;20.60;89.60
14577;DHT22;7375;46.072;14.470;2022-10-18T04:33:22;20.60;89.60
14577;DHT22;7375;46.072;14.470;2022-10-18T04:35:50;20.60;89.50
14577;DHT22;7375;46.072;14.470;2022-10-18T04:38:17;20.60;89.50
14577;DHT22;7375;46.072;14.470;2022-10-18T04:40:45;20.60;89.40
14577;DHT22;7375;46.072;14.470;2022-10-18T04:43:12;20.60;89.40
14577;DHT22;7375;46.072;14.470;2022-10-18T04:45:39;20.60;89.30
14577;DHT22;7375;46.072;14.470;2022-10-18T04:48:06;20.60;89.30
14577;DHT22;7375;46.072;14.470;2022-10-18T04:50:33;20.60;89.30
14577;DHT22;7375;46.072;14.470;2022-10-18T04:52:59;20.60;89.30
14577;DHT22;7375;46.072;14.470;2022-10-18T04:55:26;20.60;89.20
14577;DHT22;7375;46.072;14.470;2022-10-18T04:57:54;20.60;89.20
14577;DHT22;7375;46.072;14.470;2022-10-18T05:00:21;20.60;89.10
14577;DHT22;7375;46.072;14.470;2022-10-18T05:02:48;20.60;89.10
14577;DHT22;7375;46.072;14.470;2022-10-18T05:05:15;20.60;89.10
14577;DHT22;7375;46.072;14.470;2022-10-18T05:07:41;20.60;89.20
14577;DHT22;7375;46.072;14.470;2022-10-18T05:10:08;20.60;89.20
14577;DHT22;7375;46.072;14.470;2022-10-18T05:12:35;20.60;89.10
14577;DHT22;7375;46.072;14.470;2022-10-18T05:15:03;20.60;89.10
14577;DHT22;7375;46.072;14.470;2022-10-18T05:17:30;20.60;89.00
14577;DHT22;7375;46.072;14.470;2022-10-18T05:19:58;20.60;89.00
14577;DHT22;7375;46.072;14.470;2022-10-18T05:22:25;20.70;89.10
14577;DHT22;7375;46.072;14.470;2022-10-18T05:24:51;20.70;89.10
14577;DHT22;7375;46.072;14.470;2022-10-18T05:27:18;20.60;88.90
14577;DHT22;7375;46.072;14.470;2022-10-18T05:29:45;20.70;89.50
14577;DHT22;7375;46.072;14.470;2022-10-18T05:32:13;20.70;89.60
14577;DHT22;7375;46.072;14.470;2022-10-18T05:34:40;20.70;89.10
14577;DHT22;7375;46.072;14.470;2022-10-18T05:37:09;20.70;89.30
14577;DHT22;7375;46.072;14.470;2022-10-18T05:39:36;20.70;88.70
14577;DHT22;7375;46.072;14.470;2022-10-18T05:42:03;20.70;90.40
14577;DHT22;7375;46.072;14.470;2022-10-18T05:44:29;20.80;90.90
14577;DHT22;7375;46.072;14.470;2022-10-18T05:46:56;20.80;90.90
14577;DHT22;7375;46.072;14.470;2022-10-18T05:49:24;20.80;90.90
14577;DHT22;7375;46.072;14.470;2022-10-18T05:51:51;20.80;91.00
14577;DHT22;7375;46.072;14.470;2022-10-18T05:54:18;20.80;91.10
14577;DHT22;7375;46.072;14.470;2022-10-18T05:56:45;20.80;91.10
14577;DHT22;7375;46.072;14.470;2022-10-18T05:59:16;20.90;91.00
14577;DHT22;7375;46.072;14.470;2022-10-18T06:01:45;20.80;91.00
14577;DHT22;7375;46.072;14.470;2022-10-18T06:04:12;20.80;91.00
14577;DHT22;7375;46.072;14.470;2022-10-18T06:06:41;20.80;90.90
14577;DHT22;7375;46.072;14.470;2022-10-18T06:09:08;20.80;91.10
14577;DHT22;7375;46.072;14.470;2022-10-18T06:11:41;20.80;91.10
14577;DHT22;7375;46.072;14.470;2022-10-18T06:14:08;20.70;90.70
14577;DHT22;7375;46.072;14.470;2022-10-18T06:16:35;20.70;90.70
14577;DHT22;7375;46.072;14.470;2022-10-18T06:19:02;20.70;90.70
14577;DHT22;7375;46.072;14.470;2022-10-18T06:21:29;20.70;90.60
14577;DHT22;7375;46.072;14.470;2022-10-18T06:23:57;20.70;90.40
14577;DHT22;7375;46.072;14.470;2022-10-18T06:26:25;20.70;90.20
14577;DHT22;7375;46.072;14.470;2022-10-18T06:28:52;20.70;90.20
14577;DHT22;7375;46.072;14.470;2022-10-18T06:31:19;20.70;90.10
14577;DHT22;7375;46.072;14.470;2022-10-18T06:33:46;20.70;90.00
14577;DHT22;7375;46.072;14.470;2022-10-18T06:36:14;20.80;89.90
14577;DHT22;7375;46.072;14.470;2022-10-18T06:38:41;20.80;89.50
14577;DHT22;7375;46.072;14.470;2022-10-18T06:41:09;20.80;89.20
14577;DHT22;7375;46.072;14.470;2022-10-18T06:43:36;20.80;88.90
14577;DHT22;7375;46.072;14.470;2022-10-18T06:46:03;20.80;88.70
14577;DHT22;7375;46.072;14.470;2022-10-18T06:48:31;20.80;88.50
14577;DHT22;7375;46.072;14.470;2022-10-18T06:51:00;20.80;88.40
14577;DHT22;7375;46.072;14.470;2022-10-18T06:53:27;20.80;88.30
14577;DHT22;7375;46.072;14.470;2022-10-18T06:55:58;20.80;88.20
14577;DHT22;7375;46.072;14.470;2022-10-18T06:58:26;20.80;87.90
14577;DHT22;7375;46.072;14.470;2022-10-18T07:00:53;20.90;87.90
14577;DHT22;7375;46.072;14.470;2022-10-18T07:03:20;20.90;87.60
14577;DHT22;7375;46.072;14.470;2022-10-18T07:05:47;20.90;87.50
14577;DHT22;7375;46.072;14.470;2022-10-18T07:08:13;20.90;87.40
14577;DHT22;7375;46.072;14.470;2022-10-18T07:10:40;20.90;87.30
14577;DHT22;7375;46.072;14.470;2022-10-18T07:13:07;20.90;87.10
14577;DHT22;7375;46.072;14.470;2022-10-18T07:15:35;20.90;86.70
14577;DHT22;7375;46.072;14.470;2022-10-18T07:18:03;20.90;86.70
14577;DHT22;7375;46.072;14.470;2022-10-18T07:20:29;21.00;87.20
14577;DHT22;7375;46.072;14.470;2022-10-18T07:22:56;21.00;86.30
14577;DHT22;7375;46.072;14.470;2022-10-18T07:25:23;21.00;86.10
14577;DHT22;7375;46.072;14.470;2022-10-18T07:27:50;21.00;86.00
14577;DHT22;7375;46.072;14.470;2022-10-18T07:30:17;21.00;85.80
14577;DHT22;7375;46.072;14.470;2022-10-18T07:32:45;21.00;85.60
14577;DHT22;7375;46.072;14.470;2022-10-18T07:35:12;21.00;85.50
14577;DHT22;7375;46.072;14.470;2022-10-18T07:37:38;21.10;85.40
14577;DHT22;7375;46.072;14.470;2022-10-18T07:40:06;21.10;85.20
14577;DHT22;7375;46.072;14.470;2022-10-18T07:42:33;21.10;85.10
14577;DHT22;7375;46.072;14.470;2022-10-18T07:45:00;21.10;85.50
14577;DHT22;7375;46.072;14.470;2022-10-18T07:47:27;21.10;84.70
14577;DHT22;7375;46.072;14.470;2022-10-18T07:49:55;21.10;84.50
14577;DHT22;7375;46.072;14.470;2022-10-18T07:52:21;21.10;84.30
14577;DHT22;7375;46.072;14.470;2022-10-18T07:54:48;21.10;84.20
14577;DHT22;7375;46.072;14.470;2022-10-18T07:57:15;21.10;84.10
14577;DHT22;7375;46.072;14.470;2022-10-18T07:59:44;21.20;84.00
14577;DHT22;7375;46.072;14.470;2022-10-18T08:02:12;21.20;84.10
14577;DHT22;7375;46.072;14.470;2022-10-18T08:04:39;21.20;83.90
14577;DHT22;7375;46.072;14.470;2022-10-18T08:07:07;21.20;83.70
14577;DHT22;7375;46.072;14.470;2022-10-18T08:09:34;21.20;83.50
14577;DHT22;7375;46.072;14.470;2022-10-18T08:12:00;21.20;83.40
14577;DHT22;7375;46.072;14.470;2022-10-18T08:14:27;21.20;83.20
14577;DHT22;7375;46.072;14.470;2022-10-18T08:16:54;21.30;83.10
14577;DHT22;7375;46.072;14.470;2022-10-18T08:19:21;21.30;83.00
14577;DHT22;7375;46.072;14.470;2022-10-18T08:21:48;21.30;82.80
14577;DHT22;7375;46.072;14.470;2022-10-18T08:24:16;21.30;82.60
14577;DHT22;7375;46.072;14.470;2022-10-18T08:26:43;21.30;82.40
14577;DHT22;7375;46.072;14.470;2022-10-18T08:29:10;21.40;82.40
14577;DHT22;7375;46.072;14.470;2022-10-18T08:31:37;21.40;82.10
14577;DHT22;7375;46.072;14.470;2022-10-18T08:34:04;21.40;81.90
14577;DHT22;7375;46.072;14.470;2022-10-18T08:36:34;21.40;81.70
14577;DHT22;7375;46.072;14.470;2022-10-18T08:39:00;21.40;81.60
14577;DHT22;7375;46.072;14.470;2022-10-18T08:41:42;21.40;81.40
14577;DHT22;7375;46.072;14.470;2022-10-18T08:44:11;21.40;81.30
14577;DHT22;7375;46.072;14.470;2022-10-18T08:46:41;21.50;81.20
14577;DHT22;7375;46.072;14.470;2022-10-18T08:49:10;21.50;81.10
14577;DHT22;7375;46.072;14.470;2022-10-18T08:51:42;21.50;80.80
14577;DHT22;7375;46.072;14.470;2022-10-18T08:54:10;21.50;80.80
14577;DHT22;7375;46.072;14.470;2022-10-18T08:56:38;21.50;80.60
14577;DHT22;7375;46.072;14.470;2022-10-18T08:59:07;21.50;80.30
14577;DHT22;7375;46.072;14.470;2022-10-18T09:01:35;21.60;80.30
14577;DHT22;7375;46.072;14.470;2022-10-18T09:04:13;21.60;80.20
14577;DHT22;7375;46.072;14.470;2022-10-18T09:06:43;21.60;80.20
14577;DHT22;7375;46.072;14.470;2022-10-18T09:09:17;21.60;79.90
14577;DHT22;7375;46.072;14.470;2022-10-18T09:11:49;21.60;79.80
14577;DHT22;7375;46.072;14.470;2022-10-18T09:17:09;21.60;79.40
14577;DHT22;7375;46.072;14.470;2022-10-18T09:19:45;21.60;79.30
14577;DHT22;7375;46.072;14.470;2022-10-18T09:22:12;21.70;79.30
14577;DHT22;7375;46.072;14.470;2022-10-18T09:24:40;21.70;79.20
14577;DHT22;7375;46.072;14.470;2022-10-18T09:27:11;21.70;79.10
14577;DHT22;7375;46.072;14.470;2022-10-18T09:29:43;21.70;79.00
14577;DHT22;7375;46.072;14.470;2022-10-18T09:32:20;21.70;78.80
14577;DHT22;7375;46.072;14.470;2022-10-18T09:34:52;21.70;78.70
14577;DHT22;7375;46.072;14.470;2022-10-18T09:37:20;21.80;78.80
14577;DHT22;7375;46.072;14.470;2022-10-18T09:39:47;21.80;78.60
14577;DHT22;7375;46.072;14.470;2022-10-18T09:42:19;21.80;78.60
14577;DHT22;7375;46.072;14.470;2022-10-18T09:44:52;21.80;78.40
14577;DHT22;7375;46.072;14.470;2022-10-18T09:47:21;21.80;78.30
14577;DHT22;7375;46.072;14.470;2022-10-18T09:49:56;21.90;78.10
14577;DHT22;7375;46.072;14.470;2022-10-18T09:52:26;21.90;78.00
14577;DHT22;7375;46.072;14.470;2022-10-18T09:54:55;21.90;77.90
14577;DHT22;7375;46.072;14.470;2022-10-18T09:57:26;21.90;77.70
14577;DHT22;7375;46.072;14.470;2022-10-18T09:59:55;22.00;77.70
14577;DHT22;7375;46.072;14.470;2022-10-18T10:02:24;22.00;77.30
14577;DHT22;7375;46.072;14.470;2022-10-18T10:04:51;22.00;77.30
14577;DHT22;7375;46.072;14.470;2022-10-18T10:07:19;22.00;77.20
14577;DHT22;7375;46.072;14.470;2022-10-18T10:09:46;22.10;77.00
14577;DHT22;7375;46.072;14.470;2022-10-18T10:12:27;22.10;76.90
14577;DHT22;7375;46.072;14.470;2022-10-18T10:14:54;22.20;76.60
14577;DHT22;7375;46.072;14.470;2022-10-18T10:17:33;22.20;76.50
14577;DHT22;7375;46.072;14.470;2022-10-18T10:20:01;22.30;76.20
14577;DHT22;7375;46.072;14.470;2022-10-18T10:22:32;22.40;75.80
14577;DHT22;7375;46.072;14.470;2022-10-18T10:24:59;22.30;75.60
14577;DHT22;7375;46.072;14.470;2022-10-18T10:27:29;22.30;75.60
14577;DHT22;7375;46.072;14.470;2022-10-18T10:29:57;22.30;75.60
14577;DHT22;7375;46.072;14.470;2022-10-18T10:32:25;22.30;76.20
14577;DHT22;7375;46.072;14.470;2022-10-18T10:34:54;22.30;75.60
14577;DHT22;7375;46.072;14.470;2022-10-18T10:37:22;22.30;75.80
14577;DHT22;7375;46.072;14.470;2022-10-18T10:40:03;22.40;75.60
14577;DHT22;7375;46.072;14.470;2022-10-18T10:42:29;22.40;75.30
14577;DHT22;7375;46.072;14.470;2022-10-18T10:44:58;22.50;75.40
14577;DHT22;7375;46.072;14.470;2022-10-18T10:47:26;22.50;75.10
14577;DHT22;7375;46.072;14.470;2022-10-18T10:49:56;22.50;74.60
14577;DHT22;7375;46.072;14.470;2022-10-18T10:52:23;22.60;74.60
14577;DHT22;7375;46.072;14.470;2022-10-18T10:54:51;22.60;74.50
14577;DHT22;7375;46.072;14.470;2022-10-18T10:57:21;22.70;74.30
14577;DHT22;7375;46.072;14.470;2022-10-18T10:59:49;22.70;74.00
14577;DHT22;7375;46.072;14.470;2022-10-18T11:02:20;22.70;74.20
14577;DHT22;7375;46.072;14.470;2022-10-18T11:04:48;22.70;74.00
14577;DHT22;7375;46.072;14.470;2022-10-18T11:07:20;22.70;74.00
14577;DHT22;7375;46.072;14.470;2022-10-18T11:09:50;22.70;73.80
14577;DHT22;7375;46.072;14.470;2022-10-18T11:12:25;22.70;73.60
14577;DHT22;7375;46.072;14.470;2022-10-18T11:14:58;22.70;73.70
14577;DHT22;7375;46.072;14.470;2022-10-18T11:17:29;22.60;74.10
14577;DHT22;7375;46.072;14.470;2022-10-18T11:20:09;22.50;74.50
14577;DHT22;7375;46.072;14.470;2022-10-18T11:22:40;22.50;74.70
14577;DHT22;7375;46.072;14.470;2022-10-18T11:25:09;22.50;74.80
14577;DHT22;7375;46.072;14.470;2022-10-18T11:27:38;22.40;74.40
14577;DHT22;7375;46.072;14.470;2022-10-18T11:30:17;22.40;74.50
14577;DHT22;7375;46.072;14.470;2022-10-18T11:32:56;22.40;74.40
14577;DHT22;7375;46.072;14.470;2022-10-18T11:35:30;22.30;74.30
14577;DHT22;7375;46.072;14.470;2022-10-18T11:40:56;22.20;74.00
14577;DHT22;7375;46.072;14.470;2022-10-18T11:43:27;22.10;73.80
14577;DHT22;7375;46.072;14.470;2022-10-18T11:45:59;22.10;72.90
14577;DHT22;7375;46.072;14.470;2022-10-18T11:48:43;22.10;73.00
14577;DHT22;7375;46.072;14.470;2022-10-18T11:51:14;22.10;73.00
14577;DHT22;7375;46.072;14.470;2022-10-18T11:53:57;22.10;72.90
14577;DHT22;7375;46.072;14.470;2022-10-18T11:56:31;22.00;73.00
14577;DHT22;7375;46.072;14.470;2022-10-18T11:59:07;22.00;73.00
14577;DHT22;7375;46.072;14.470;2022-10-18T12:01:37;22.00;73.00
14577;DHT22;7375;46.072;14.470;2022-10-18T12:04:08;22.00;73.10
14577;DHT22;7375;46.072;14.470;2022-10-18T12:06:38;22.00;73.20
14577;DHT22;7375;46.072;14.470;2022-10-18T12:09:09;22.00;73.20
14577;DHT22;7375;46.072;14.470;2022-10-18T12:11:38;22.00;73.30
14577;DHT22;7375;46.072;14.470;2022-10-18T12:14:21;22.00;73.30
14577;DHT22;7375;46.072;14.470;2022-10-18T12:16:49;22.00;73.90
14577;DHT22;7375;46.072;14.470;2022-10-18T12:19:17;22.00;73.30
14577;DHT22;7375;46.072;14.470;2022-10-18T12:21:48;22.00;73.50
14577;DHT22;7375;46.072;14.470;2022-10-18T12:24:15;22.00;73.50
14577;DHT22;7375;46.072;14.470;2022-10-18T12:26:46;22.00;73.50
14577;DHT22;7375;46.072;14.470;2022-10-18T12:29:17;21.90;73.40
14577;DHT22;7375;46.072;14.470;2022-10-18T12:31:48;22.00;73.50
14577;DHT22;7375;46.072;14.470;2022-10-18T12:34:26;22.00;73.60
14577;DHT22;7375;46.072;14.470;2022-10-18T12:36:57;22.00;73.60
14577;DHT22;7375;46.072;14.470;2022-10-18T12:39:25;22.00;73.60
14577;DHT22;7375;46.072;14.470;2022-10-18T12:41:54;21.90;73.50
14577;DHT22;7375;46.072;14.470;2022-10-18T12:44:23;21.90;73.60
14577;DHT22;7375;46.072;14.470;2022-10-18T12:46:55;22.00;73.70
14577;DHT22;7375;46.072;14.470;2022-10-18T12:49:23;21.90;73.70
14577;DHT22;7375;46.072;14.470;2022-10-18T12:51:55;21.90;73.70
14577;DHT22;7375;46.072;14.470;2022-10-18T12:54:27;21.90;73.70
14577;DHT22;7375;46.072;14.470;2022-10-18T12:56:56;21.90;73.70
14577;DHT22;7375;46.072;14.470;2022-10-18T13:02:21;21.90;73.80
14577;DHT22;7375;46.072;14.470;2022-10-18T13:04:55;21.90;73.70
14577;DHT22;7375;46.072;14.470;2022-10-18T13:07:36;21.90;73.70
14577;DHT22;7375;46.072;14.470;2022-10-18T13:15:52;21.90;73.70
14577;DHT22;7375;46.072;14.470;2022-10-18T13:18:22;22.00;73.80
14577;DHT22;7375;46.072;14.470;2022-10-18T13:20:54;21.90;73.70
14577;DHT22;7375;46.072;14.470;2022-10-18T13:23:30;22.00;73.90
14577;DHT22;7375;46.072;14.470;2022-10-18T13:26:00;21.90;73.70
14577;DHT22;7375;46.072;14.470;2022-10-18T13:28:31;21.90;73.70
14577;DHT22;7375;46.072;14.470;2022-10-18T13:31:03;22.00;73.80
14577;DHT22;7375;46.072;14.470;2022-10-18T13:33:34;22.00;73.80
14577;DHT22;7375;46.072;14.470;2022-10-18T13:36:03;22.00;73.80
14577;DHT22;7375;46.072;14.470;2022-10-18T13:38:41;22.00;73.80
14577;DHT22;7375;46.072;14.470;2022-10-18T13:41:10;22.00;73.90
14577;DHT22;7375;46.072;14.470;2022-10-18T13:47:07;21.90;73.80
14577;DHT22;7375;46.072;14.470;2022-10-18T13:49:18;22.00;73.80
14577;DHT22;7375;46.072;14.470;2022-10-18T13:51:51;21.90;73.70
14577;DHT22;7375;46.072;14.470;2022-10-18T13:54:25;21.90;73.70
14577;DHT22;7375;46.072;14.470;2022-10-18T13:57:03;21.90;73.80
14577;DHT22;7375;46.072;14.470;2022-10-18T13:59:49;21.90;73.90
14577;DHT22;7375;46.072;14.470;2022-10-18T14:02:30;21.90;73.90
14577;DHT22;7375;46.072;14.470;2022-10-18T14:05:04;21.90;73.90
14577;DHT22;7375;46.072;14.470;2022-10-18T14:07:37;22.00;74.00
14577;DHT22;7375;46.072;14.470;2022-10-18T14:10:07;22.00;74.00
14577;DHT22;7375;46.072;14.470;2022-10-18T14:12:37;22.00;74.00
14577;DHT22;7375;46.072;14.470;2022-10-18T14:15:06;22.00;74.00
14577;DHT22;7375;46.072;14.470;2022-10-18T14:17:37;22.00;74.00
14577;DHT22;7375;46.072;14.470;2022-10-18T14:20:12;21.90;73.80
14577;DHT22;7375;46.072;14.470;2022-10-18T14:22:42;21.90;73.70
14577;DHT22;7375;46.072;14.470;2022-10-18T14:25:18;21.50;64.20
14577;DHT22;7375;46.072;14.470;2022-10-18T14:27:46;21.10;64.10
14577;DHT22;7375;46.072;14.470;2022-10-18T14:30:13;20.90;64.40
14577;DHT22;7375;46.072;14.470;2022-10-18T14:32:45;20.60;64.30
14577;DHT22;7375;46.072;14.470;2022-10-18T14:35:16;20.50;64.80
14577;DHT22;7375;46.072;14.470;2022-10-18T14:37:44;20.50;65.60
14577;DHT22;7375;46.072;14.470;2022-10-18T14:40:24;20.90;66.90
14577;DHT22;7375;46.072;14.470;2022-10-18T14:42:54;21.20;67.60
14577;DHT22;7375;46.072;14.470;2022-10-18T14:45:21;21.40;67.90
14577;DHT22;7375;46.072;14.470;2022-10-18T14:47:49;21.50;68.00
14577;DHT22;7375;46.072;14.470;2022-10-18T14:50:20;21.60;68.20
14577;DHT22;7375;46.072;14.470;2022-10-18T14:52:47;21.60;68.50
14577;DHT22;7375;46.072;14.470;2022-10-18T14:55:23;21.70;69.00
14577;DHT22;7375;46.072;14.470;2022-10-18T14:57:51;21.70;69.50
14577;DHT22;7375;46.072;14.470;2022-10-18T15:00:19;21.70;69.90
14577;DHT22;7375;46.072;14.470;2022-10-18T15:02:47;21.70;70.20
14577;DHT22;7375;46.072;14.470;2022-10-18T15:05:18;21.70;70.40
14577;DHT22;7375;46.072;14.470;2022-10-18T15:07:45;21.70;70.50
14577;DHT22;7375;46.072;14.470;2022-10-18T15:10:15;21.70;70.70
14577;DHT22;7375;46.072;14.470;2022-10-18T15:12:42;21.70;70.70
14577;DHT22;7375;46.072;14.470;2022-10-18T15:15:16;21.70;70.90
14577;DHT22;7375;46.072;14.470;2022-10-18T15:17:44;21.70;71.00
14577;DHT22;7375;46.072;14.470;2022-10-18T15:20:19;21.70;71.10
14577;DHT22;7375;46.072;14.470;2022-10-18T15:22:47;21.70;71.20
14577;DHT22;7375;46.072;14.470;2022-10-18T15:25:15;21.60;71.20
14577;DHT22;7375;46.072;14.470;2022-10-18T15:27:43;21.70;71.40
14577;DHT22;7375;46.072;14.470;2022-10-18T15:30:15;21.70;71.60
14577;DHT22;7375;46.072;14.470;2022-10-18T15:32:47;21.60;71.60
14577;DHT22;7375;46.072;14.470;2022-10-18T15:35:15;21.60;71.70
14577;DHT22;7375;46.072;14.470;2022-10-18T15:37:44;21.60;71.80
14577;DHT22;7375;46.072;14.470;2022-10-18T15:40:28;21.60;72.00
14577;DHT22;7375;46.072;14.470;2022-10-18T15:42:56;21.50;71.90
14577;DHT22;7375;46.072;14.470;2022-10-18T15:45:37;21.60;72.10
14577;DHT22;7375;46.072;14.470;2022-10-18T15:48:16;21.50;72.20
14577;DHT22;7375;46.072;14.470;2022-10-18T15:50:45;21.50;72.30
14577;DHT22;7375;46.072;14.470;2022-10-18T15:53:23;21.50;72.50
14577;DHT22;7375;46.072;14.470;2022-10-18T15:55:50;21.50;72.60
14577;DHT22;7375;46.072;14.470;2022-10-18T15:58:18;21.40;72.60
14577;DHT22;7375;46.072;14.470;2022-10-18T16:00:46;21.40;72.70
14577;DHT22;7375;46.072;14.470;2022-10-18T16:03:14;21.40;72.90